createdAt,value
2018-07-13T00:02:24.273Z,101297.02
2018-07-13T00:05:22.333Z,101301.09
2018-07-13T00:08:20.582Z,101301.94
2018-07-13T00:11:18.162Z,101301.94
2018-07-13T00:14:26.152Z,101302.08
2018-07-13T00:17:23.646Z,101299.37
2018-07-13T00:20:21.409Z,101292.95
2018-07-13T00:23:19.077Z,101293.94
2018-07-13T00:26:17.107Z,101291.76
2018-07-13T00:29:16.032Z,101298.01
2018-07-13T00:32:14.125Z,101300.39
2018-07-13T00:35:11.684Z,101294.61
2018-07-13T00:38:09.596Z,101298.67
2018-07-13T00:41:07.357Z,101290.70
2018-07-13T00:44:05.197Z,101287.13
2018-07-13T00:47:03.033Z,101294.77
2018-07-13T00:50:01.049Z,101292.69
2018-07-13T00:52:58.567Z,101300.33
2018-07-13T00:55:56.624Z,101294.58
2018-07-13T00:58:54.222Z,101294.22
2018-07-13T01:01:52.497Z,101298.28
2018-07-13T01:04:50.750Z,101297.92
2018-07-13T01:07:48.561Z,101295.38
2018-07-13T01:10:46.626Z,101298.95
2018-07-13T01:13:44.387Z,101296.34
2018-07-13T01:16:42.519Z,101294.16
2018-07-13T01:19:40.417Z,101293.30
2018-07-13T01:22:38.250Z,101295.64
2018-07-13T01:25:36.107Z,101292.60
2018-07-13T01:28:34.067Z,101292.60
2018-07-13T01:31:31.923Z,101289.03
2018-07-13T01:34:29.537Z,101288.53
2018-07-13T01:37:27.449Z,101288.53
2018-07-13T01:40:25.067Z,101286.81
2018-07-13T01:43:22.750Z,101287.67
2018-07-13T01:46:20.486Z,101289.53
2018-07-13T01:49:18.252Z,101298.02
2018-07-13T01:52:15.987Z,101293.59
2018-07-13T01:55:13.993Z,101285.95
2018-07-13T01:58:11.648Z,101286.81
2018-07-13T02:01:09.528Z,101286.81
2018-07-13T02:04:07.280Z,101276.83
2018-07-13T02:07:05.093Z,101270.18
2018-07-13T02:10:03.840Z,101272.40
2018-07-13T02:13:01.616Z,101274.78
2018-07-13T02:15:59.390Z,101278.68
2018-07-13T02:18:57.196Z,101282.05
2018-07-13T02:21:54.909Z,101276.96
2018-07-13T02:24:54.103Z,101281.03
2018-07-13T02:27:52.301Z,101281.55
2018-07-13T02:30:50.722Z,101278.84
2018-07-13T02:33:48.498Z,101276.63
2018-07-13T02:36:46.394Z,101275.27
2018-07-13T02:39:45.205Z,101280.70
2018-07-13T02:42:43.124Z,101286.98
2018-07-13T02:45:40.768Z,101285.09
2018-07-13T02:48:38.806Z,101288.17
2018-07-13T02:51:37.395Z,101286.31
2018-07-13T02:54:35.187Z,101289.36
2018-07-13T02:57:32.715Z,101281.59
2018-07-13T03:00:30.730Z,101285.16
2018-07-13T03:03:28.459Z,101290.91
2018-07-13T03:06:26.278Z,101290.91
2018-07-13T03:09:23.993Z,101284.99
2018-07-13T03:12:22.829Z,101282.28
2018-07-13T03:15:20.455Z,101281.31
2018-07-13T03:18:18.373Z,101283.00
2018-07-13T03:21:15.951Z,101283.37
2018-07-13T03:24:13.761Z,101281.02
2018-07-13T03:27:11.490Z,101275.06
2018-07-13T03:30:09.245Z,101278.33
2018-07-13T03:33:07.083Z,101280.91
2018-07-13T03:36:04.896Z,101275.31
2018-07-13T03:39:03.195Z,101278.59
2018-07-13T03:42:01.169Z,101278.41
2018-07-13T03:44:58.617Z,101283.04
2018-07-13T03:47:56.630Z,101275.23
2018-07-13T03:50:54.236Z,101280.36
2018-07-13T03:53:53.011Z,101281.41
2018-07-13T03:56:50.697Z,101282.45
2018-07-13T03:59:48.541Z,101282.28
2018-07-13T04:02:46.298Z,101282.84
2018-07-13T04:05:44.121Z,101286.25
2018-07-13T04:08:41.805Z,101277.30
2018-07-13T04:11:39.590Z,101272.06
2018-07-13T04:14:37.385Z,101277.69
2018-07-13T04:17:35.133Z,101276.02
2018-07-13T04:20:33.026Z,101269.92
2018-07-13T04:23:32.144Z,101270.44
2018-07-13T04:26:29.653Z,101271.16
2018-07-13T04:29:28.552Z,101274.92
2018-07-13T04:32:26.278Z,101271.07
2018-07-13T04:35:24.182Z,101268.88
2018-07-13T04:38:21.896Z,101262.77
2018-07-13T04:41:19.809Z,101266.53
2018-07-13T04:44:17.339Z,101264.00
2018-07-13T04:47:15.315Z,101262.84
2018-07-13T04:50:13.007Z,101264.91
2018-07-13T04:53:10.950Z,101264.56
2018-07-13T04:56:08.701Z,101266.28
2018-07-13T05:11:57.517Z,101266.52
2018-07-13T05:14:55.310Z,101266.17
2018-07-13T05:17:53.171Z,101275.36
2018-07-13T05:20:50.988Z,101273.19
2018-07-13T05:23:49.098Z,101267.58
2018-07-13T05:26:46.838Z,101269.48
2018-07-13T05:29:44.909Z,101274.09
2018-07-13T05:32:42.669Z,101276.47
2018-07-13T05:35:40.457Z,101273.94
2018-07-13T05:38:38.147Z,101273.30
2018-07-13T05:41:37.155Z,101280.98
2018-07-13T05:44:34.825Z,101280.31
2018-07-13T05:47:32.751Z,101280.85
2018-07-13T05:50:30.505Z,101283.89
2018-07-13T05:53:28.278Z,101283.08
2018-07-13T05:56:26.186Z,101284.62
2018-07-13T05:59:23.994Z,101281.22
2018-07-13T06:02:21.859Z,101280.58
2018-07-13T06:05:19.760Z,101280.23
2018-07-13T06:08:17.562Z,101276.00
2018-07-13T06:11:15.640Z,101276.69
2018-07-13T06:14:13.137Z,101271.08
2018-07-13T06:17:12.114Z,101273.47
2018-07-13T06:20:09.821Z,101269.75
2018-07-13T06:23:07.826Z,101270.79
2018-07-13T06:26:05.762Z,101267.89
2018-07-13T06:29:03.663Z,101266.39
2018-07-13T06:32:01.951Z,101264.35
2018-07-13T06:34:59.838Z,101261.81
2018-07-13T06:37:57.927Z,101259.95
2018-07-13T06:40:56.702Z,101262.84
2018-07-13T06:43:54.486Z,101257.59
2018-07-13T06:46:56.658Z,101259.27
2018-07-13T06:49:54.609Z,101261.34
2018-07-13T06:52:52.754Z,101250.47
2018-07-13T06:55:50.479Z,101247.39
2018-07-13T06:59:00.066Z,101251.32
2018-07-13T07:01:57.889Z,101251.83
2018-07-13T07:04:55.853Z,101252.00
2018-07-13T07:07:53.661Z,101243.34
2018-07-13T07:10:51.469Z,101245.55
2018-07-13T07:13:52.228Z,101244.91
2018-07-13T07:16:50.476Z,101242.69
2018-07-13T07:19:48.184Z,101243.05
2018-07-13T07:22:46.616Z,101238.47
2018-07-13T07:25:52.675Z,101238.47
2018-07-13T07:28:50.260Z,101236.42
2018-07-13T07:31:48.040Z,101233.85
2018-07-13T07:34:45.978Z,101235.21
2018-07-13T07:37:44.376Z,101230.63
2018-07-13T07:40:42.693Z,101235.21
2018-07-13T07:43:40.409Z,101238.61
2018-07-13T07:46:38.338Z,101233.32
2018-07-13T07:49:36.257Z,101234.50
2018-07-13T07:52:34.129Z,101231.78
2018-07-13T07:55:31.999Z,101232.79
2018-07-13T07:58:30.105Z,101237.37
2018-07-13T08:01:27.943Z,101234.16
2018-07-13T08:04:25.902Z,101226.50
2018-07-13T08:07:24.018Z,101226.85
2018-07-13T08:10:23.221Z,101227.86
2018-07-13T08:13:20.814Z,101225.13
2018-07-13T08:16:18.830Z,101230.93
2018-07-13T08:19:16.532Z,101229.56
2018-07-13T08:22:17.572Z,101225.49
2018-07-13T08:25:19.233Z,101221.91
2018-07-13T08:28:18.015Z,101221.91
2018-07-13T08:31:17.973Z,101223.27
2018-07-13T08:34:15.954Z,101221.06
2018-07-13T08:37:13.635Z,101218.02
2018-07-13T08:40:11.758Z,101212.58
2018-07-13T08:43:09.414Z,101210.36
2018-07-13T08:46:07.261Z,101210.36
2018-07-13T08:49:06.325Z,101205.92
2018-07-13T08:52:04.278Z,101200.48
2018-07-13T08:55:03.309Z,101198.81
2018-07-13T08:58:02.533Z,101196.59
2018-07-13T09:01:00.735Z,101199.81
2018-07-13T09:03:59.210Z,101196.73
2018-07-13T09:06:56.968Z,101193.34
2018-07-13T09:09:55.297Z,101188.41
2018-07-13T09:12:53.122Z,101188.08
2018-07-13T09:15:50.981Z,101192.16
2018-07-13T09:18:48.969Z,101191.98
2018-07-13T09:21:46.954Z,101196.06
2018-07-13T09:24:44.842Z,101188.91
2018-07-13T09:27:42.639Z,101184.16
2018-07-13T09:30:40.651Z,101187.02
2018-07-13T09:33:38.599Z,101177.50
2018-07-13T09:36:36.329Z,101176.33
2018-07-13T09:39:35.251Z,101176.33
2018-07-13T09:42:33.181Z,101176.16
2018-07-13T09:45:31.244Z,101174.80
2018-07-13T09:48:28.832Z,101168.67
2018-07-13T09:51:26.894Z,101171.05
2018-07-13T09:54:24.929Z,101169.86
2018-07-13T09:57:22.929Z,101164.07
2018-07-13T10:00:21.725Z,101160.50
2018-07-13T10:03:19.969Z,101164.75
2018-07-13T10:06:17.803Z,101165.25
2018-07-13T10:09:16.010Z,101167.62
2018-07-13T10:12:13.752Z,101164.22
2018-07-13T10:15:11.703Z,101160.64
2018-07-13T10:18:09.627Z,101163.04
2018-07-13T10:21:08.706Z,101166.77
2018-07-13T10:24:07.350Z,101169.48
2018-07-13T10:27:06.796Z,101165.08
2018-07-13T10:30:07.458Z,101161.65
2018-07-13T10:33:06.649Z,101164.37
2018-07-13T10:36:07.027Z,101162.69
2018-07-13T10:39:04.949Z,101158.61
2018-07-13T10:42:02.584Z,101152.46
2018-07-13T10:45:00.720Z,101153.82
2018-07-13T10:47:58.568Z,101149.75
2018-07-13T10:50:56.357Z,101158.08
2018-07-13T10:53:53.996Z,101154.50
2018-07-13T10:56:51.976Z,101151.78
2018-07-13T10:59:50.731Z,101150.61
2018-07-13T11:02:48.823Z,101148.03
2018-07-13T11:05:46.434Z,101147.21
2018-07-13T11:08:44.471Z,101150.42
2018-07-13T11:11:43.247Z,101147.71
2018-07-13T11:14:41.465Z,101140.06
2018-07-13T11:17:39.596Z,101141.59
2018-07-13T11:20:37.466Z,101141.59
2018-07-13T11:23:35.469Z,101134.45
2018-07-13T11:26:34.637Z,101131.73
2018-07-13T11:29:32.484Z,101128.66
2018-07-13T11:32:30.675Z,101131.38
2018-07-13T11:35:28.517Z,101127.84
2018-07-13T11:38:26.443Z,101126.62
2018-07-13T11:41:24.638Z,101118.11
2018-07-13T11:44:22.637Z,101127.27
2018-07-13T11:47:20.458Z,101125.56
2018-07-13T11:50:18.356Z,101111.65
2018-07-13T11:53:16.150Z,101113.51
2018-07-13T11:56:14.138Z,101112.30
2018-07-13T11:59:11.879Z,101112.30
2018-07-13T12:02:09.969Z,101106.54
2018-07-13T12:05:07.732Z,101096.67
2018-07-13T12:08:05.710Z,101094.14
2018-07-13T12:11:03.364Z,101099.22
2018-07-13T12:14:01.332Z,101085.63
2018-07-13T12:16:59.085Z,101081.73
2018-07-13T12:19:57.186Z,101075.95
2018-07-13T12:22:54.981Z,101068.30
2018-07-13T12:25:52.871Z,101063.41
2018-07-13T12:28:50.726Z,101066.95
2018-07-13T12:31:48.806Z,101063.73
2018-07-13T12:34:46.585Z,101064.23
2018-07-13T12:37:44.463Z,101058.80
2018-07-13T12:40:42.314Z,101059.66
2018-07-13T12:43:40.355Z,101055.26
2018-07-13T12:46:39.172Z,101055.26
2018-07-13T12:49:37.385Z,101046.25
2018-07-13T12:52:35.475Z,101056.62
2018-07-13T12:55:33.610Z,101058.98
2018-07-13T12:58:31.249Z,101059.33
2018-07-13T13:01:29.058Z,101060.33
2018-07-13T13:04:27.773Z,101055.76
2018-07-13T13:07:25.729Z,101054.55
2018-07-13T13:10:23.364Z,101057.12
2018-07-13T13:13:21.523Z,101048.11
2018-07-13T13:16:20.169Z,101041.32
2018-07-13T13:19:18.149Z,101048.11
2018-07-13T13:22:16.278Z,101035.89
2018-07-13T13:25:14.087Z,101035.89
2018-07-13T13:28:11.854Z,101039.96
2018-07-13T13:31:09.825Z,101031.81
2018-07-13T13:34:07.539Z,101036.75
2018-07-13T13:37:05.590Z,101032.31
2018-07-13T13:40:03.258Z,101025.88
2018-07-13T13:43:01.223Z,101021.81
2018-07-13T13:45:59.354Z,101018.59
2018-07-13T13:48:57.366Z,101019.59
2018-07-13T13:51:55.527Z,101020.95
2018-07-13T13:54:53.735Z,101020.95
2018-07-13T13:57:51.758Z,101015.02
2018-07-13T14:00:49.661Z,101017.23
2018-07-13T14:03:47.800Z,101024.17
2018-07-13T14:06:45.588Z,101025.03
2018-07-13T14:09:43.355Z,101022.66
2018-07-13T14:12:41.238Z,101023.17
2018-07-13T14:15:39.097Z,101019.59
2018-07-13T14:18:37.163Z,101017.73
2018-07-13T14:21:35.720Z,101028.09
2018-07-13T14:24:33.634Z,101027.23
2018-07-13T14:27:31.351Z,101022.81
2018-07-13T14:30:29.444Z,101025.88
2018-07-13T14:33:26.972Z,101031.46
2018-07-13T14:36:24.930Z,101027.39
2018-07-13T14:39:23.898Z,101034.71
2018-07-13T14:42:21.838Z,101026.03
2018-07-13T14:45:19.704Z,101018.56
2018-07-13T14:48:17.648Z,101012.77
2018-07-13T14:51:15.445Z,101014.13
2018-07-13T14:54:14.716Z,101022.28
2018-07-13T14:57:12.507Z,101020.09
2018-07-13T15:00:11.508Z,101022.46
2018-07-13T15:03:09.578Z,101024.67
2018-07-13T15:06:08.043Z,101021.10
2018-07-13T15:09:05.611Z,101016.17
2018-07-13T15:12:03.482Z,101020.25
2018-07-13T15:15:01.328Z,101018.03
2018-07-13T15:17:59.344Z,101017.20
2018-07-13T15:20:57.354Z,101020.75
2018-07-13T15:23:55.391Z,101026.72
2018-07-13T15:26:54.000Z,101036.72
2018-07-13T15:29:52.019Z,101031.29
2018-07-13T15:32:49.754Z,101036.72
2018-07-13T15:35:47.655Z,101039.44
2018-07-13T15:38:45.488Z,101045.72
2018-07-13T15:41:43.346Z,101044.87
2018-07-13T15:44:41.178Z,101048.59
2018-07-13T15:47:40.114Z,101050.80
2018-07-13T15:50:37.738Z,101048.09
2018-07-13T15:53:36.663Z,101049.95
2018-07-13T15:56:34.417Z,101048.59
2018-07-13T15:59:32.581Z,101046.73
2018-07-13T16:02:30.294Z,101047.08
2018-07-13T16:05:28.334Z,101044.01
2018-07-13T16:08:26.190Z,101044.01
2018-07-13T16:11:24.332Z,101035.69
2018-07-13T16:14:23.177Z,101040.30
2018-07-13T16:17:21.309Z,101040.61
2018-07-13T16:20:19.161Z,101041.11
2018-07-13T16:23:18.023Z,101041.97
2018-07-13T16:26:15.953Z,101043.83
2018-07-13T16:29:13.834Z,101043.33
2018-07-13T16:32:11.671Z,101041.11
2018-07-13T16:35:09.717Z,101048.77
2018-07-13T16:38:07.378Z,101043.83
2018-07-13T16:41:05.741Z,101041.80
2018-07-13T16:44:04.398Z,101044.01
2018-07-13T16:47:02.063Z,101040.94
2018-07-13T16:50:00.436Z,101040.62
2018-07-13T16:52:59.164Z,101040.62
2018-07-13T16:55:57.422Z,101040.77
2018-07-13T16:58:56.022Z,101041.12
2018-07-13T17:01:54.502Z,101033.98
2018-07-13T17:04:55.162Z,101034.51
2018-07-13T17:07:52.915Z,101036.38
2018-07-13T17:10:51.877Z,101036.87
2018-07-13T17:13:50.712Z,101039.58
2018-07-13T17:16:48.559Z,101037.88
2018-07-13T17:19:46.626Z,101034.34
2018-07-13T17:22:44.492Z,101033.98
2018-07-13T17:25:42.707Z,101037.70
2018-07-13T17:28:40.621Z,101032.80
2018-07-13T17:31:38.400Z,101029.73
2018-07-13T17:34:36.258Z,101024.44
2018-07-13T17:37:34.292Z,101030.73
2018-07-13T17:40:32.324Z,101034.98
2018-07-13T17:43:30.899Z,101034.13
2018-07-13T17:46:28.976Z,101039.20
2018-07-13T17:49:26.613Z,101036.48
2018-07-13T17:52:24.569Z,101038.38
2018-07-13T17:55:22.368Z,101037.02
2018-07-13T17:58:20.208Z,101042.95
2018-07-13T18:01:17.980Z,101041.73
2018-07-13T18:04:15.878Z,101049.06
2018-07-13T18:07:13.651Z,101049.56
2018-07-13T18:10:11.998Z,101051.41
2018-07-13T18:13:09.544Z,101045.98
2018-07-13T18:16:08.488Z,101055.99
2018-07-13T18:19:06.259Z,101051.92
2018-07-13T18:22:04.730Z,101061.42
2018-07-13T18:25:03.078Z,101064.99
2018-07-13T18:28:01.559Z,101065.34
2018-07-13T18:30:59.403Z,101070.42
2018-07-13T18:33:57.237Z,101074.85
2018-07-13T18:36:55.270Z,101076.20
2018-07-13T18:39:53.234Z,101077.89
2018-07-13T18:42:50.887Z,101081.96
2018-07-13T18:45:48.923Z,101083.00
2018-07-13T18:48:47.677Z,101080.60
2018-07-13T18:51:45.422Z,101086.39
2018-07-13T18:54:44.108Z,101084.17
2018-07-13T18:57:42.083Z,101085.03
2018-07-13T19:00:39.874Z,101086.89
2018-07-13T19:03:38.716Z,101087.75
2018-07-13T19:06:36.623Z,101090.78
2018-07-13T19:09:34.625Z,101088.08
2018-07-13T19:12:33.370Z,101092.67
2018-07-13T19:15:31.433Z,101091.32
2018-07-13T19:18:29.294Z,101094.18
2018-07-13T19:21:27.242Z,101095.54
2018-07-13T19:24:25.079Z,101096.89
2018-07-13T19:27:23.079Z,101097.25
2018-07-13T19:30:20.901Z,101095.03
2018-07-13T19:33:18.724Z,101099.11
2018-07-13T19:36:16.606Z,101100.11
2018-07-13T19:39:15.506Z,101098.61
2018-07-13T19:42:13.271Z,101097.25
2018-07-13T19:45:11.192Z,101096.89
2018-07-13T19:48:08.898Z,101102.33
2018-07-13T19:51:06.737Z,101105.04
2018-07-13T19:54:05.506Z,101105.54
2018-07-13T19:57:03.295Z,101111.50
2018-07-13T20:00:01.048Z,101113.36
2018-07-13T20:02:59.867Z,101113.36
2018-07-13T20:05:57.573Z,101115.22
2018-07-13T20:08:55.492Z,101113.00
2018-07-13T20:11:53.261Z,101114.36
2018-07-13T20:14:51.295Z,101107.75
2018-07-13T20:17:49.142Z,101103.83
2018-07-13T20:20:46.984Z,101106.03
2018-07-13T20:23:44.637Z,101103.32
2018-07-13T20:26:42.575Z,101107.89
2018-07-13T20:29:40.298Z,101104.00
2018-07-13T20:32:39.216Z,101099.57
2018-07-13T20:35:36.853Z,101096.85
2018-07-13T20:38:35.940Z,101104.00
2018-07-13T20:41:33.688Z,101102.28
2018-07-13T20:44:31.572Z,101102.81
2018-07-13T20:47:29.432Z,101100.24
2018-07-13T20:50:27.198Z,101102.96
2018-07-13T20:53:24.906Z,101108.39
2018-07-13T20:56:22.675Z,101106.67
2018-07-13T20:59:20.311Z,101106.67
2018-07-13T21:02:19.115Z,101110.75
2018-07-13T21:05:16.811Z,101109.39
2018-07-13T21:08:14.590Z,101108.56
2018-07-13T21:11:12.318Z,101109.06
2018-07-13T21:14:10.148Z,101106.35
2018-07-13T21:17:07.906Z,101106.85
2018-07-13T21:20:05.784Z,101110.06
2018-07-13T21:23:03.490Z,101113.14
2018-07-13T21:26:01.259Z,101110.56
2018-07-13T21:28:59.005Z,101111.42
2018-07-13T21:31:57.183Z,101118.20
2018-07-13T21:34:54.882Z,101122.28
2018-07-13T21:37:52.754Z,101120.92
2018-07-13T21:40:50.629Z,101120.59
2018-07-13T21:43:48.650Z,101128.21
2018-07-13T21:46:46.404Z,101127.71
2018-07-13T21:49:44.278Z,101123.45
2018-07-13T21:52:42.054Z,101127.38
2018-07-13T21:55:39.805Z,101126.53
2018-07-13T21:58:37.410Z,101130.60
2018-07-13T22:01:35.236Z,101130.60
2018-07-13T22:04:32.970Z,101128.38
2018-07-13T22:07:31.791Z,101126.17
2018-07-13T22:10:29.557Z,101125.31
2018-07-13T22:13:27.412Z,101121.23
2018-07-13T22:16:25.072Z,101123.95
2018-07-13T22:19:22.870Z,101125.84
2018-07-13T22:22:20.791Z,101122.09
2018-07-13T22:25:18.522Z,101121.42
2018-07-13T22:28:16.313Z,101124.98
2018-07-13T22:31:14.271Z,101122.77
2018-07-13T22:34:12.077Z,101117.84
2018-07-13T22:37:09.893Z,101118.84
2018-07-13T22:40:07.533Z,101114.77
2018-07-13T22:43:05.498Z,101119.84
2018-07-13T22:46:03.449Z,101119.84
2018-07-13T22:49:01.391Z,101113.05
2018-07-13T22:51:59.121Z,101107.27
2018-07-13T22:54:56.940Z,101105.59
2018-07-13T22:57:54.775Z,101105.23
2018-07-13T23:00:52.681Z,101108.30
2018-07-13T23:03:50.328Z,101104.73
2018-07-13T23:06:48.475Z,101110.30
2018-07-13T23:09:46.074Z,101100.80
2018-07-13T23:12:44.096Z,101104.55
2018-07-13T23:15:41.896Z,101104.55
2018-07-13T23:18:39.757Z,101107.77
2018-07-13T23:21:37.317Z,101104.69
2018-07-13T23:24:35.275Z,101110.65
2018-07-13T23:27:33.069Z,101110.29
2018-07-13T23:30:30.998Z,101112.15
2018-07-13T23:33:28.581Z,101110.29
2018-07-13T23:36:26.622Z,101105.86
2018-07-13T23:39:24.313Z,101104.00
2018-07-13T23:42:23.284Z,101098.75
2018-07-13T23:45:21.042Z,101097.04
2018-07-13T23:48:20.000Z,101090.42
2018-07-13T23:51:17.601Z,101090.75
2018-07-13T23:54:15.795Z,101092.64
2018-07-13T23:57:13.432Z,101092.28
